createdAt,value
2022-08-27T00:00:03.918Z,20.69
2022-08-27T00:01:03.983Z,20.69
2022-08-27T00:02:04.044Z,20.69
2022-08-27T00:03:04.067Z,20.69
2022-08-27T00:04:04.300Z,20.69
2022-08-27T00:05:04.082Z,20.69
2022-08-27T00:06:04.070Z,20.69
2022-08-27T00:07:04.548Z,20.69
2022-08-27T00:08:03.803Z,20.69
2022-08-27T00:09:03.751Z,20.69
2022-08-27T00:10:04.648Z,20.62
2022-08-27T00:11:03.784Z,20.62
2022-08-27T00:12:03.903Z,20.69
2022-08-27T00:13:03.901Z,20.69
2022-08-27T00:14:03.826Z,20.69
2022-08-27T00:15:03.921Z,20.69
2022-08-27T00:16:03.947Z,20.69
2022-08-27T00:17:05.037Z,20.69
2022-08-27T00:18:04.206Z,20.69
2022-08-27T00:19:04.178Z,20.62
2022-08-27T00:20:04.142Z,20.62
2022-08-27T00:21:04.141Z,20.62
2022-08-27T00:22:04.144Z,20.62
2022-08-27T00:23:04.160Z,20.62
2022-08-27T00:24:04.238Z,20.62
2022-08-27T00:25:04.317Z,20.62
2022-08-27T00:26:04.327Z,20.62
2022-08-27T00:27:04.391Z,20.62
2022-08-27T00:28:04.250Z,20.62
2022-08-27T00:29:04.379Z,20.62
2022-08-27T00:30:03.546Z,20.62
2022-08-27T00:31:03.508Z,20.62
2022-08-27T00:32:03.710Z,20.62
2022-08-27T00:33:03.583Z,20.62
2022-08-27T00:34:03.667Z,20.62
2022-08-27T00:35:03.826Z,20.62
2022-08-27T00:36:03.946Z,20.56
2022-08-27T00:37:03.897Z,20.56
2022-08-27T00:38:03.906Z,20.56
2022-08-27T00:39:03.980Z,20.56
2022-08-27T00:40:04.075Z,20.56
2022-08-27T00:41:04.240Z,20.56
2022-08-27T00:42:04.149Z,20.56
2022-08-27T00:43:04.306Z,20.56
2022-08-27T00:44:04.379Z,20.56
2022-08-27T00:45:04.461Z,20.56
2022-08-27T00:46:03.545Z,20.56
2022-08-27T00:47:03.580Z,20.56
2022-08-27T00:48:03.586Z,20.56
2022-08-27T00:49:03.588Z,20.50
2022-08-27T00:50:03.749Z,20.50
2022-08-27T00:51:03.828Z,20.50
2022-08-27T00:52:03.918Z,20.50
2022-08-27T00:53:03.996Z,20.50
2022-08-27T00:54:03.990Z,20.50
2022-08-27T00:55:04.087Z,20.56
2022-08-27T00:56:04.068Z,20.56
2022-08-27T00:57:04.152Z,20.56
2022-08-27T00:58:05.733Z,20.56
2022-08-27T00:59:04.226Z,20.50
2022-08-27T01:00:04.245Z,20.56
2022-08-27T01:01:04.351Z,20.56
2022-08-27T01:02:04.436Z,20.56
2022-08-27T01:03:04.399Z,20.56
2022-08-27T01:04:04.402Z,20.56
2022-08-27T01:05:04.398Z,20.56
2022-08-27T01:06:03.508Z,20.56
2022-08-27T01:07:03.582Z,20.56
2022-08-27T01:08:03.625Z,20.50
2022-08-27T01:09:03.503Z,20.50
2022-08-27T01:10:03.585Z,20.50
2022-08-27T01:11:03.697Z,20.50
2022-08-27T01:12:03.592Z,20.50
2022-08-27T01:13:03.516Z,20.50
2022-08-27T01:14:03.663Z,20.50
2022-08-27T01:15:03.826Z,20.56
2022-08-27T01:16:03.885Z,20.50
2022-08-27T01:17:03.997Z,20.50
2022-08-27T01:18:04.015Z,20.50
2022-08-27T01:19:04.073Z,20.50
2022-08-27T01:20:04.079Z,20.50
2022-08-27T01:21:04.157Z,20.50
2022-08-27T01:22:04.145Z,20.50
2022-08-27T01:23:04.221Z,20.50
2022-08-27T01:24:04.309Z,20.50
2022-08-27T01:25:04.471Z,20.50
2022-08-27T01:26:04.388Z,20.50
2022-08-27T01:27:03.595Z,20.50
2022-08-27T01:28:03.741Z,20.50
2022-08-27T01:29:03.842Z,20.50
2022-08-27T01:30:03.823Z,20.50
2022-08-27T01:31:03.625Z,20.50
2022-08-27T01:32:03.665Z,20.50
2022-08-27T01:33:03.747Z,20.50
2022-08-27T01:34:03.747Z,20.50
2022-08-27T01:35:03.753Z,20.50
2022-08-27T01:36:03.979Z,20.50
2022-08-27T01:37:04.080Z,20.50
2022-08-27T01:38:04.080Z,20.50
2022-08-27T01:39:04.084Z,20.50
2022-08-27T01:40:04.367Z,20.50
2022-08-27T01:41:04.382Z,20.50
2022-08-27T01:42:04.474Z,20.50
2022-08-27T01:43:03.503Z,20.44
2022-08-27T01:44:03.507Z,20.50
2022-08-27T01:45:05.648Z,20.50
2022-08-27T01:46:03.835Z,20.44
2022-08-27T01:47:03.968Z,20.44
2022-08-27T01:48:04.100Z,20.44
2022-08-27T01:49:04.142Z,20.44
2022-08-27T01:50:04.072Z,20.44
2022-08-27T01:51:04.143Z,20.44
2022-08-27T01:52:04.236Z,20.44
2022-08-27T01:53:04.316Z,20.44
2022-08-27T01:54:04.315Z,20.44
2022-08-27T01:55:04.329Z,20.44
2022-08-27T01:56:04.400Z,20.44
2022-08-27T01:57:03.515Z,20.44
2022-08-27T01:58:03.628Z,20.44
2022-08-27T01:59:03.589Z,20.44
2022-08-27T02:00:03.682Z,20.44
2022-08-27T02:01:04.227Z,20.44
2022-08-27T02:02:04.243Z,20.44
2022-08-27T02:03:04.225Z,20.44
2022-08-27T02:04:04.300Z,20.44
2022-08-27T02:05:04.312Z,20.44
2022-08-27T02:06:04.392Z,20.44
2022-08-27T02:07:04.467Z,20.44
2022-08-27T02:08:04.546Z,20.44
2022-08-27T02:09:03.536Z,20.44
2022-08-27T02:10:03.505Z,20.44
2022-08-27T02:11:03.592Z,20.44
2022-08-27T02:12:03.662Z,20.44
2022-08-27T02:13:03.671Z,20.50
2022-08-27T02:14:03.685Z,20.44
2022-08-27T02:15:03.749Z,20.44
2022-08-27T02:16:03.839Z,20.50
2022-08-27T02:17:03.820Z,20.50
2022-08-27T02:18:03.973Z,20.50
2022-08-27T02:19:03.999Z,20.44
2022-08-27T02:20:04.000Z,20.44
2022-08-27T02:21:03.989Z,20.44
2022-08-27T02:22:04.074Z,20.50
2022-08-27T02:23:04.064Z,20.50
2022-08-27T02:24:04.060Z,20.44
2022-08-27T02:25:04.069Z,20.50
2022-08-27T02:26:04.166Z,20.50
2022-08-27T02:27:04.149Z,20.50
2022-08-27T02:28:04.293Z,20.50
2022-08-27T02:29:04.229Z,20.50
2022-08-27T02:30:04.244Z,20.50
2022-08-27T02:31:04.472Z,20.50
2022-08-27T02:32:04.394Z,20.50
2022-08-27T02:33:04.393Z,20.50
2022-08-27T02:34:04.385Z,20.50
2022-08-27T02:35:03.593Z,20.50
2022-08-27T02:36:03.671Z,20.56
2022-08-27T02:37:03.686Z,20.56
2022-08-27T02:38:03.734Z,20.50
2022-08-27T02:39:03.591Z,20.50
2022-08-27T02:40:03.655Z,20.50
2022-08-27T02:41:04.561Z,20.50
2022-08-27T02:42:03.669Z,20.50
2022-08-27T02:43:03.750Z,20.56
2022-08-27T02:44:03.841Z,20.56
2022-08-27T02:45:04.171Z,20.56
2022-08-27T02:46:04.332Z,20.56
2022-08-27T02:47:04.393Z,20.56
2022-08-27T02:48:04.617Z,20.56
2022-08-27T02:49:04.457Z,20.56
2022-08-27T02:50:04.469Z,20.56
2022-08-27T02:51:03.579Z,20.56
2022-08-27T02:52:03.581Z,20.56
2022-08-27T02:53:03.586Z,20.56
2022-08-27T02:54:03.676Z,20.56
2022-08-27T02:55:03.581Z,20.56
2022-08-27T02:56:03.668Z,20.56
2022-08-27T02:57:03.589Z,20.56
2022-08-27T02:58:03.693Z,20.56
2022-08-27T02:59:03.712Z,20.56
2022-08-27T03:00:03.668Z,20.56
2022-08-27T03:01:03.747Z,20.56
2022-08-27T03:02:04.040Z,20.56
2022-08-27T03:03:03.955Z,20.56
2022-08-27T03:04:04.062Z,20.56
2022-08-27T03:05:04.063Z,20.56
2022-08-27T03:06:04.067Z,20.56
2022-08-27T03:07:04.091Z,20.62
2022-08-27T03:08:04.180Z,20.62
2022-08-27T03:09:04.324Z,20.62
2022-08-27T03:10:04.394Z,20.62
2022-08-27T03:11:04.318Z,20.62
2022-08-27T03:12:04.338Z,20.62
2022-08-27T03:13:04.308Z,20.62
2022-08-27T03:14:04.381Z,20.62
2022-08-27T03:15:03.507Z,20.62
2022-08-27T03:16:03.705Z,20.62
2022-08-27T03:17:03.676Z,20.62
2022-08-27T03:18:03.787Z,20.62
2022-08-27T03:19:03.752Z,20.62
2022-08-27T03:20:03.824Z,20.62
2022-08-27T03:21:04.021Z,20.62
2022-08-27T03:22:03.998Z,20.62
2022-08-27T03:23:04.253Z,20.62
2022-08-27T03:24:09.173Z,20.62
2022-08-27T03:25:04.304Z,20.62
2022-08-27T03:26:04.300Z,20.62
2022-08-27T03:27:04.327Z,20.62
2022-08-27T03:28:04.422Z,20.62
2022-08-27T03:29:04.311Z,20.62
2022-08-27T03:30:04.505Z,20.62
2022-08-27T03:31:04.531Z,20.62
2022-08-27T03:32:04.406Z,20.62
2022-08-27T03:33:04.400Z,20.62
2022-08-27T03:34:03.598Z,20.62
2022-08-27T03:35:03.518Z,20.62
2022-08-27T03:36:03.604Z,20.62
2022-08-27T03:37:03.590Z,20.62
2022-08-27T03:38:03.689Z,20.56
2022-08-27T03:39:03.687Z,20.56
2022-08-27T03:40:03.786Z,20.56
2022-08-27T03:41:03.840Z,20.56
2022-08-27T03:42:03.912Z,20.62
2022-08-27T03:43:03.908Z,20.62
2022-08-27T03:44:04.068Z,20.62
2022-08-27T03:45:04.063Z,20.62
2022-08-27T03:46:04.159Z,20.62
2022-08-27T03:47:04.146Z,20.62
2022-08-27T03:48:04.335Z,20.62
2022-08-27T03:49:04.339Z,20.62
2022-08-27T03:50:04.317Z,20.62
2022-08-27T03:51:04.391Z,20.62
2022-08-27T03:52:03.603Z,20.62
2022-08-27T03:53:03.583Z,20.56
2022-08-27T03:54:03.668Z,20.62
2022-08-27T03:55:03.753Z,20.56
2022-08-27T03:56:03.829Z,20.56
2022-08-27T03:57:03.828Z,20.56
2022-08-27T03:58:03.909Z,20.62
2022-08-27T03:59:03.978Z,20.56
2022-08-27T04:00:04.055Z,20.56
2022-08-27T04:01:04.176Z,20.56
2022-08-27T04:02:04.214Z,20.56
2022-08-27T04:03:04.187Z,20.56
2022-08-27T04:04:04.138Z,20.56
2022-08-27T04:05:04.225Z,20.56
2022-08-27T04:06:04.153Z,20.56
2022-08-27T04:07:04.137Z,20.56
2022-08-27T04:08:04.140Z,20.56
2022-08-27T04:09:04.229Z,20.56
2022-08-27T04:10:04.309Z,20.56
2022-08-27T04:11:04.310Z,20.56
2022-08-27T04:12:04.220Z,20.56
2022-08-27T04:13:04.222Z,20.56
2022-08-27T04:14:04.233Z,20.56
2022-08-27T04:15:04.328Z,20.56
2022-08-27T04:16:04.491Z,20.56
2022-08-27T04:17:04.403Z,20.56
2022-08-27T04:18:03.533Z,20.56
2022-08-27T04:19:03.497Z,20.56
2022-08-27T04:20:24.836Z,20.56
2022-08-27T04:21:03.746Z,20.56
2022-08-27T04:22:03.674Z,20.56
2022-08-27T04:23:03.745Z,20.56
2022-08-27T04:24:03.669Z,20.56
2022-08-27T04:25:04.005Z,20.56
2022-08-27T04:26:04.149Z,20.56
2022-08-27T04:27:04.200Z,20.56
2022-08-27T04:28:04.361Z,20.56
2022-08-27T04:29:04.400Z,20.56
2022-08-27T04:30:04.379Z,20.56
2022-08-27T04:31:04.490Z,20.56
2022-08-27T04:32:03.500Z,20.56
2022-08-27T04:33:03.667Z,20.56
2022-08-27T04:34:03.585Z,20.50
2022-08-27T04:35:03.520Z,20.56
2022-08-27T04:36:03.505Z,20.56
2022-08-27T04:37:03.694Z,20.56
2022-08-27T04:38:03.733Z,20.56
2022-08-27T04:39:03.585Z,20.56
2022-08-27T04:40:04.386Z,20.56
2022-08-27T04:41:03.502Z,20.56
2022-08-27T04:42:03.594Z,20.56
2022-08-27T04:43:03.691Z,20.56
2022-08-27T04:44:03.608Z,20.56
2022-08-27T04:45:03.583Z,20.56
2022-08-27T04:46:03.628Z,20.56
2022-08-27T04:47:03.587Z,20.56
2022-08-27T04:48:03.711Z,20.56
2022-08-27T04:49:03.691Z,20.56
2022-08-27T04:50:04.209Z,20.56
2022-08-27T04:51:03.921Z,20.56
2022-08-27T04:52:03.894Z,20.56
2022-08-27T04:53:03.866Z,20.56
2022-08-27T04:54:03.910Z,20.56
2022-08-27T04:55:03.834Z,20.56
2022-08-27T04:56:03.742Z,20.56
2022-08-27T04:57:03.825Z,20.56
2022-08-27T04:58:03.947Z,20.56
2022-08-27T04:59:03.902Z,20.56
2022-08-27T05:00:03.987Z,20.56
2022-08-27T05:01:04.080Z,20.50
2022-08-27T05:02:04.521Z,20.56
2022-08-27T05:03:04.149Z,20.56
2022-08-27T05:04:04.227Z,20.56
2022-08-27T05:05:04.405Z,20.56
2022-08-27T05:06:04.377Z,20.56
2022-08-27T05:07:04.461Z,20.50
2022-08-27T05:08:04.522Z,20.50
2022-08-27T05:09:04.463Z,20.56
2022-08-27T05:10:04.555Z,20.50
2022-08-27T05:11:03.512Z,20.50
2022-08-27T05:12:03.587Z,20.50
2022-08-27T05:13:03.748Z,20.50
2022-08-27T05:14:03.786Z,20.50
2022-08-27T05:15:03.661Z,20.50
2022-08-27T05:16:03.760Z,20.50
2022-08-27T05:17:03.833Z,20.50
2022-08-27T05:18:03.847Z,20.50
2022-08-27T05:19:03.828Z,20.50
2022-08-27T05:20:03.883Z,20.50
2022-08-27T05:21:03.769Z,20.50
2022-08-27T05:22:03.740Z,20.50
2022-08-27T05:23:03.748Z,20.50
2022-08-27T05:24:03.827Z,20.50
2022-08-27T05:25:03.756Z,20.50
2022-08-27T05:26:04.012Z,20.44
2022-08-27T05:27:03.827Z,20.50
2022-08-27T05:28:03.758Z,20.44
2022-08-27T05:29:03.756Z,20.44
2022-08-27T05:30:04.305Z,20.44
2022-08-27T05:31:04.450Z,20.44
2022-08-27T05:32:04.471Z,20.44
2022-08-27T05:33:03.589Z,20.44
2022-08-27T05:34:03.601Z,20.38
2022-08-27T05:35:03.753Z,20.38
2022-08-27T05:36:03.834Z,20.38
2022-08-27T05:37:03.845Z,20.38
2022-08-27T05:38:03.858Z,20.38
2022-08-27T05:39:03.830Z,20.38
2022-08-27T05:40:03.983Z,20.44
2022-08-27T05:41:03.831Z,20.44
2022-08-27T05:42:03.824Z,20.44
2022-08-27T05:43:03.983Z,20.38
2022-08-27T05:44:13.955Z,20.38
2022-08-27T05:45:03.987Z,20.38
2022-08-27T05:46:04.035Z,20.38
2022-08-27T05:47:04.074Z,20.38
2022-08-27T05:48:04.095Z,20.38
2022-08-27T05:49:04.068Z,20.38
2022-08-27T05:50:03.997Z,20.38
2022-08-27T05:51:04.077Z,20.38
2022-08-27T05:52:04.064Z,20.38
2022-08-27T05:53:04.077Z,20.38
2022-08-27T05:54:08.134Z,20.38
2022-08-27T05:55:04.146Z,20.38
2022-08-27T05:56:04.232Z,20.38
2022-08-27T05:57:04.326Z,20.38
2022-08-27T05:58:04.542Z,20.38
2022-08-27T05:59:04.392Z,20.38
2022-08-27T06:00:03.714Z,20.44
2022-08-27T06:01:06.023Z,20.44
2022-08-27T06:02:03.674Z,20.44
2022-08-27T06:03:03.751Z,20.44
2022-08-27T06:04:03.607Z,20.44
2022-08-27T06:05:03.706Z,20.44
2022-08-27T06:06:03.664Z,20.44
2022-08-27T06:07:03.834Z,20.44
2022-08-27T06:08:03.823Z,20.44
2022-08-27T06:09:03.917Z,20.44
2022-08-27T06:10:04.074Z,20.44
2022-08-27T06:11:04.071Z,20.44
2022-08-27T06:12:04.147Z,20.50
2022-08-27T06:13:04.139Z,20.50
2022-08-27T06:14:04.229Z,20.44
2022-08-27T06:15:04.243Z,20.50
2022-08-27T06:16:04.395Z,20.50
2022-08-27T06:17:04.314Z,20.50
2022-08-27T06:18:04.302Z,20.44
2022-08-27T06:19:04.466Z,20.44
2022-08-27T06:20:04.400Z,20.50
2022-08-27T06:21:04.409Z,20.50
2022-08-27T06:22:10.176Z,20.50
2022-08-27T06:23:04.470Z,20.50
2022-08-27T06:24:03.531Z,20.50
2022-08-27T06:25:03.596Z,20.50
2022-08-27T06:26:03.586Z,20.50
2022-08-27T06:27:03.660Z,20.50
2022-08-27T06:28:03.920Z,20.50
2022-08-27T06:29:03.827Z,20.50
2022-08-27T06:30:03.837Z,20.50
2022-08-27T06:31:03.796Z,20.50
2022-08-27T06:32:03.918Z,20.50
2022-08-27T06:33:03.823Z,20.50
2022-08-27T06:34:07.432Z,20.50
2022-08-27T06:35:04.015Z,20.50
2022-08-27T06:36:04.142Z,20.50
2022-08-27T06:37:04.229Z,20.50
2022-08-27T06:38:04.253Z,20.50
2022-08-27T06:39:04.417Z,20.50
2022-08-27T06:40:04.545Z,20.50
2022-08-27T06:41:04.482Z,20.50
2022-08-27T06:42:04.383Z,20.50
2022-08-27T06:43:04.382Z,20.50
2022-08-27T06:44:04.400Z,20.50
2022-08-27T06:45:03.595Z,20.50
2022-08-27T06:46:03.671Z,20.50
2022-08-27T06:47:03.506Z,20.50
2022-08-27T06:48:03.833Z,20.44
2022-08-27T06:49:03.745Z,20.44
2022-08-27T06:50:03.905Z,20.44
2022-08-27T06:51:03.903Z,20.44
2022-08-27T06:52:04.022Z,20.44
2022-08-27T06:53:04.070Z,20.44
2022-08-27T06:54:04.074Z,20.44
2022-08-27T06:55:04.075Z,20.44
2022-08-27T06:56:03.998Z,20.44
2022-08-27T06:57:03.984Z,20.44
2022-08-27T06:58:04.055Z,20.44
2022-08-27T06:59:04.014Z,20.44
2022-08-27T07:00:03.588Z,20.44
2022-08-27T07:01:03.567Z,20.44
2022-08-27T07:02:03.675Z,20.44
2022-08-27T07:03:03.596Z,20.44
2022-08-27T07:04:03.675Z,20.44
2022-08-27T07:05:03.669Z,20.44
2022-08-27T07:06:03.763Z,20.44
2022-08-27T07:07:03.672Z,20.44
2022-08-27T07:08:03.790Z,20.44
2022-08-27T07:09:03.755Z,20.44
2022-08-27T07:10:04.283Z,20.44
2022-08-27T07:11:03.902Z,20.44
2022-08-27T07:12:03.827Z,20.44
2022-08-27T07:13:03.763Z,20.44
2022-08-27T07:14:03.844Z,20.44
2022-08-27T07:15:03.849Z,20.44
2022-08-27T07:16:03.871Z,20.44
2022-08-27T07:17:04.000Z,20.44
2022-08-27T07:18:04.854Z,20.44
2022-08-27T07:19:04.407Z,20.44
2022-08-27T07:20:04.067Z,20.50
2022-08-27T07:21:04.231Z,20.50
2022-08-27T07:22:04.391Z,20.50
2022-08-27T07:23:06.481Z,20.50
2022-08-27T07:24:04.493Z,20.50
2022-08-27T07:25:03.670Z,20.50
2022-08-27T07:26:03.700Z,20.50
2022-08-27T07:27:03.747Z,20.50
2022-08-27T07:28:03.780Z,20.50
2022-08-27T07:29:03.909Z,20.50
2022-08-27T07:30:03.742Z,20.50
2022-08-27T07:31:03.888Z,20.50
2022-08-27T07:32:03.823Z,20.50
2022-08-27T07:33:03.833Z,20.44
2022-08-27T07:34:04.156Z,20.44
2022-08-27T07:35:04.302Z,20.44
2022-08-27T07:36:04.222Z,20.44
2022-08-27T07:37:04.302Z,20.44
2022-08-27T07:38:04.472Z,20.44
2022-08-27T07:39:03.504Z,20.44
2022-08-27T07:40:03.618Z,20.44
2022-08-27T07:41:03.557Z,20.44
2022-08-27T07:42:03.662Z,20.50
2022-08-27T07:43:03.749Z,20.50
2022-08-27T07:44:03.822Z,20.50
2022-08-27T07:45:03.914Z,20.50
2022-08-27T07:46:03.953Z,20.50
2022-08-27T07:47:03.907Z,20.50
2022-08-27T07:48:03.959Z,20.56
2022-08-27T07:49:03.987Z,20.56
2022-08-27T07:50:03.920Z,20.56
2022-08-27T07:51:03.919Z,20.56
2022-08-27T07:52:03.824Z,20.56
2022-08-27T07:53:03.908Z,20.56
2022-08-27T07:54:03.994Z,20.62
2022-08-27T07:55:03.985Z,20.62
2022-08-27T07:56:04.161Z,20.62
2022-08-27T07:57:04.066Z,20.62
2022-08-27T07:58:04.097Z,20.62
2022-08-27T07:59:04.061Z,20.62
2022-08-27T08:00:04.116Z,20.69
2022-08-27T08:01:04.037Z,20.69
2022-08-27T08:02:04.119Z,20.69
2022-08-27T08:03:04.080Z,20.69
2022-08-27T08:04:03.991Z,20.69
2022-08-27T08:05:03.981Z,20.69
2022-08-27T08:06:04.162Z,20.69
2022-08-27T08:07:03.987Z,20.69
2022-08-27T08:08:04.199Z,20.75
2022-08-27T08:09:04.173Z,20.75
2022-08-27T08:10:04.155Z,20.75
2022-08-27T08:11:04.143Z,20.75
2022-08-27T08:12:04.157Z,20.75
2022-08-27T08:13:04.068Z,20.75
2022-08-27T08:14:04.147Z,20.75
2022-08-27T08:15:04.229Z,20.81
2022-08-27T08:16:04.153Z,20.81
2022-08-27T08:17:06.439Z,20.81
2022-08-27T08:18:04.383Z,20.81
2022-08-27T08:19:04.390Z,20.81
2022-08-27T08:20:19.737Z,20.81
2022-08-27T08:21:03.903Z,20.81
2022-08-27T08:22:05.864Z,20.88
2022-08-27T08:23:04.150Z,20.88
2022-08-27T08:24:04.155Z,20.88
2022-08-27T08:25:04.058Z,20.88
2022-08-27T08:26:04.072Z,20.88
2022-08-27T08:27:07.298Z,20.88
2022-08-27T08:28:04.084Z,20.88
2022-08-27T08:29:04.069Z,20.94
2022-08-27T08:30:04.158Z,20.94
2022-08-27T08:31:04.237Z,20.94
2022-08-27T08:32:04.074Z,20.94
2022-08-27T08:33:04.165Z,20.94
2022-08-27T08:34:03.764Z,20.94
2022-08-27T08:35:03.669Z,20.94
2022-08-27T08:36:03.832Z,20.94
2022-08-27T08:37:03.848Z,20.94
2022-08-27T08:38:03.949Z,20.94
2022-08-27T08:39:04.078Z,20.94
2022-08-27T08:40:04.192Z,20.94
2022-08-27T08:41:04.248Z,20.94
2022-08-27T08:42:04.151Z,20.94
2022-08-27T08:43:04.139Z,21.00
2022-08-27T08:44:05.756Z,21.00
2022-08-27T08:45:04.155Z,21.00
2022-08-27T08:46:04.276Z,21.00
2022-08-27T08:47:04.219Z,21.00
2022-08-27T08:48:04.218Z,21.00
2022-08-27T08:49:04.225Z,21.00
2022-08-27T08:50:04.393Z,21.00
2022-08-27T08:51:04.414Z,21.00
2022-08-27T08:52:04.503Z,21.00
2022-08-27T08:53:04.228Z,21.00
2022-08-27T08:54:04.225Z,21.00
2022-08-27T08:55:04.220Z,21.00
2022-08-27T08:56:04.330Z,21.00
2022-08-27T08:57:03.658Z,21.00
2022-08-27T08:58:03.792Z,21.00
2022-08-27T08:59:03.748Z,21.00
2022-08-27T09:00:03.931Z,21.06
2022-08-27T09:01:03.798Z,21.06
2022-08-27T09:02:03.744Z,21.06
2022-08-27T09:03:03.743Z,21.06
2022-08-27T09:04:03.859Z,21.06
2022-08-27T09:05:03.830Z,21.06
2022-08-27T09:06:03.999Z,21.06
2022-08-27T09:07:04.141Z,21.06
2022-08-27T09:08:28.857Z,21.06
2022-08-27T09:09:04.303Z,21.06
2022-08-27T09:10:04.223Z,21.06
2022-08-27T09:11:04.240Z,21.06
2022-08-27T09:12:04.300Z,21.06
2022-08-27T09:13:04.474Z,21.06
2022-08-27T09:14:04.381Z,21.12
2022-08-27T09:15:03.533Z,21.12
2022-08-27T09:16:03.591Z,21.12
2022-08-27T09:17:07.130Z,21.12
2022-08-27T09:18:03.731Z,21.12
2022-08-27T09:19:06.083Z,21.12
2022-08-27T09:20:03.825Z,21.12
2022-08-27T09:21:04.947Z,21.12
2022-08-27T09:22:03.509Z,21.19
2022-08-27T09:23:03.593Z,21.19
2022-08-27T09:24:03.828Z,21.19
2022-08-27T09:25:03.906Z,21.19
2022-08-27T09:26:03.858Z,21.19
2022-08-27T09:27:03.754Z,21.19
2022-08-27T09:28:03.948Z,21.19
2022-08-27T09:29:03.907Z,21.25
2022-08-27T09:30:04.073Z,21.25
2022-08-27T09:31:04.111Z,21.25
2022-08-27T09:32:03.982Z,21.25
2022-08-27T09:33:04.075Z,21.25
2022-08-27T09:34:04.157Z,21.31
2022-08-27T09:35:04.171Z,21.31
2022-08-27T09:36:04.150Z,21.31
2022-08-27T09:37:04.149Z,21.31
2022-08-27T09:38:04.274Z,21.38
2022-08-27T09:39:04.309Z,21.38
2022-08-27T09:40:05.222Z,21.38
2022-08-27T09:41:04.314Z,21.44
2022-08-27T09:42:04.383Z,21.44
2022-08-27T09:43:04.493Z,21.44
2022-08-27T09:44:04.377Z,21.44
2022-08-27T09:45:04.472Z,21.50
2022-08-27T09:46:03.653Z,21.50
2022-08-27T09:47:03.503Z,21.50
2022-08-27T09:48:03.855Z,21.50
2022-08-27T09:49:03.676Z,21.50
2022-08-27T09:50:05.718Z,21.50
2022-08-27T09:51:03.832Z,21.50
2022-08-27T09:52:03.747Z,21.56
2022-08-27T09:53:04.799Z,21.56
2022-08-27T09:54:03.848Z,21.56
2022-08-27T09:55:03.673Z,21.56
2022-08-27T09:56:03.833Z,21.56
2022-08-27T09:57:03.923Z,21.56
2022-08-27T09:58:03.872Z,21.56
2022-08-27T09:59:04.150Z,21.56
2022-08-27T10:00:04.146Z,21.56
2022-08-27T10:01:04.235Z,21.62
2022-08-27T10:02:04.576Z,21.62
2022-08-27T10:03:04.477Z,21.62
2022-08-27T10:04:04.328Z,21.62
2022-08-27T10:05:04.484Z,21.62
2022-08-27T10:06:03.590Z,21.69
2022-08-27T10:07:03.674Z,21.69
2022-08-27T10:08:03.733Z,21.69
2022-08-27T10:09:07.058Z,21.69
2022-08-27T10:10:03.835Z,21.69
2022-08-27T10:11:03.830Z,21.69
2022-08-27T10:12:03.999Z,21.69
2022-08-27T10:13:10.140Z,21.75
2022-08-27T10:14:03.822Z,21.75
2022-08-27T10:15:03.899Z,21.75
2022-08-27T10:16:04.022Z,21.81
2022-08-27T10:17:04.164Z,21.81
2022-08-27T10:18:04.142Z,21.81
2022-08-27T10:19:04.228Z,21.88
2022-08-27T10:20:04.224Z,21.88
2022-08-27T10:21:05.864Z,21.88
2022-08-27T10:22:04.394Z,21.88
2022-08-27T10:23:04.387Z,21.88
2022-08-27T10:24:04.469Z,21.88
2022-08-27T10:25:04.474Z,21.94
2022-08-27T10:26:03.511Z,21.94
2022-08-27T10:27:03.506Z,21.94
2022-08-27T10:28:03.922Z,21.94
2022-08-27T10:29:03.676Z,21.94
2022-08-27T10:30:03.749Z,21.94
2022-08-27T10:31:03.824Z,22.00
2022-08-27T10:32:03.915Z,22.00
2022-08-27T10:33:04.180Z,22.00
2022-08-27T10:34:03.838Z,22.00
2022-08-27T10:35:03.827Z,22.00
2022-08-27T10:36:04.006Z,22.00
2022-08-27T10:37:05.286Z,22.00
2022-08-27T10:38:04.206Z,22.00
2022-08-27T10:39:04.152Z,22.00
2022-08-27T10:40:04.257Z,22.06
2022-08-27T10:41:04.233Z,22.06
2022-08-27T10:42:04.312Z,22.06
2022-08-27T10:43:04.305Z,22.06
2022-08-27T10:44:04.407Z,22.06
2022-08-27T10:45:04.463Z,22.06
2022-08-27T10:46:03.541Z,22.06
2022-08-27T10:47:03.598Z,22.06
2022-08-27T10:48:03.667Z,22.06
2022-08-27T10:49:03.587Z,22.06
2022-08-27T10:50:03.591Z,22.06
2022-08-27T10:51:03.601Z,22.06
2022-08-27T10:52:07.772Z,22.06
2022-08-27T10:53:03.748Z,22.06
2022-08-27T10:54:03.749Z,22.06
2022-08-27T10:55:06.773Z,22.06
2022-08-27T10:56:03.901Z,22.06
2022-08-27T10:57:26.484Z,22.06
2022-08-27T10:58:04.146Z,22.12
2022-08-27T10:59:04.229Z,22.12
2022-08-27T11:00:04.225Z,22.12
2022-08-27T11:01:04.459Z,22.12
2022-08-27T11:02:04.565Z,22.12
2022-08-27T11:03:04.391Z,22.12
2022-08-27T11:04:03.613Z,22.12
2022-08-27T11:05:03.591Z,22.12
2022-08-27T11:06:03.598Z,22.12
2022-08-27T11:07:03.672Z,22.19
2022-08-27T11:08:03.814Z,22.19
2022-08-27T11:09:04.042Z,22.19
2022-08-27T11:10:03.746Z,22.19
2022-08-27T11:11:23.543Z,22.19
2022-08-27T11:12:15.231Z,22.19
2022-08-27T11:13:03.736Z,22.25
2022-08-27T11:14:03.921Z,22.25
2022-08-27T11:15:03.748Z,22.25
2022-08-27T11:16:03.942Z,22.31
2022-08-27T11:17:03.985Z,22.31
2022-08-27T11:18:04.097Z,22.31
2022-08-27T11:19:04.222Z,22.38
2022-08-27T11:20:04.382Z,22.38
2022-08-27T11:21:04.479Z,22.38
2022-08-27T11:22:03.519Z,22.44
2022-08-27T11:23:03.507Z,22.44
2022-08-27T11:24:03.666Z,22.44
2022-08-27T11:25:03.752Z,22.50
2022-08-27T11:26:04.025Z,22.50
2022-08-27T11:27:03.996Z,22.56
2022-08-27T11:28:04.002Z,22.56
2022-08-27T11:29:03.997Z,22.62
2022-08-27T11:30:03.992Z,22.62
2022-08-27T11:31:03.995Z,22.62
2022-08-27T11:32:04.079Z,22.69
2022-08-27T11:33:03.911Z,22.69
2022-08-27T11:34:03.990Z,22.75
2022-08-27T11:35:03.991Z,22.75
2022-08-27T11:36:03.990Z,22.75
2022-08-27T11:37:03.910Z,22.75
2022-08-27T11:38:04.066Z,22.75
2022-08-27T11:39:03.898Z,22.75
2022-08-27T11:40:04.021Z,22.75
2022-08-27T11:41:04.142Z,22.81
2022-08-27T11:42:04.151Z,22.81
2022-08-27T11:43:04.108Z,22.81
2022-08-27T11:44:04.069Z,22.75
2022-08-27T11:45:04.066Z,22.75
2022-08-27T11:46:04.077Z,22.75
2022-08-27T11:47:04.263Z,22.75
2022-08-27T11:48:04.286Z,22.75
2022-08-27T11:49:04.159Z,22.75
2022-08-27T11:50:04.248Z,22.75
2022-08-27T11:51:04.254Z,22.75
2022-08-27T11:52:04.142Z,22.75
2022-08-27T11:53:04.167Z,22.75
2022-08-27T11:54:04.312Z,22.75
2022-08-27T11:55:04.305Z,22.75
2022-08-27T11:56:04.235Z,22.75
2022-08-27T11:57:04.391Z,22.69
2022-08-27T11:58:04.452Z,22.69
2022-08-27T11:59:03.583Z,22.75
2022-08-27T12:00:03.593Z,22.75
2022-08-27T12:01:04.837Z,22.75
2022-08-27T12:02:03.758Z,22.75
2022-08-27T12:03:03.851Z,22.75
2022-08-27T12:04:03.912Z,22.75
2022-08-27T12:05:03.763Z,22.75
2022-08-27T12:06:03.835Z,22.75
2022-08-27T12:07:03.737Z,22.81
2022-08-27T12:08:04.014Z,22.81
2022-08-27T12:09:04.072Z,22.81
2022-08-27T12:10:04.077Z,22.81
2022-08-27T12:11:03.995Z,22.81
2022-08-27T12:12:04.067Z,22.88
2022-08-27T12:13:04.136Z,22.88
2022-08-27T12:14:04.223Z,22.88
2022-08-27T12:15:04.304Z,22.88
2022-08-27T12:16:04.355Z,22.94
2022-08-27T12:17:04.410Z,22.94
2022-08-27T12:18:03.586Z,22.94
2022-08-27T12:19:04.268Z,22.94
2022-08-27T12:20:03.662Z,22.94
2022-08-27T12:21:03.672Z,23.00
2022-08-27T12:22:03.527Z,23.00
2022-08-27T12:23:03.670Z,23.00
2022-08-27T12:24:03.908Z,23.00
2022-08-27T12:25:03.829Z,23.00
2022-08-27T12:26:03.934Z,23.00
2022-08-27T12:27:03.994Z,23.06
2022-08-27T12:28:03.989Z,23.06
2022-08-27T12:29:04.149Z,23.06
2022-08-27T12:30:04.177Z,23.06
2022-08-27T12:31:04.230Z,23.06
2022-08-27T12:32:04.393Z,23.06
2022-08-27T12:33:04.316Z,23.06
2022-08-27T12:34:04.476Z,23.06
2022-08-27T12:35:04.485Z,23.06
2022-08-27T12:36:04.405Z,23.06
2022-08-27T12:37:07.458Z,23.06
2022-08-27T12:38:04.407Z,23.06
2022-08-27T12:39:04.482Z,23.06
2022-08-27T12:40:03.716Z,23.06
2022-08-27T12:41:03.748Z,23.06
2022-08-27T12:42:03.673Z,23.06
2022-08-27T12:43:03.748Z,23.06
2022-08-27T12:44:03.826Z,23.06
2022-08-27T12:45:03.768Z,23.06
2022-08-27T12:46:03.913Z,23.06
2022-08-27T12:47:03.988Z,23.00
2022-08-27T12:48:04.009Z,23.00
2022-08-27T12:49:12.881Z,23.00
2022-08-27T12:50:03.954Z,23.00
2022-08-27T12:51:04.001Z,23.06
2022-08-27T12:52:04.067Z,23.00